sensor_id;sensor_type;location;lat;lon;timestamp;temperature;humidity
53498;DHT22;39382;47.168;16.008;2023-07-31T00:00:28;16.00;99.90
53498;DHT22;39382;47.168;16.008;2023-07-31T00:02:54;15.90;99.90
53498;DHT22;39382;47.168;16.008;2023-07-31T00:05:20;15.90;99.90
53498;DHT22;39382;47.168;16.008;2023-07-31T00:07:46;16.00;99.90
53498;DHT22;39382;47.168;16.008;2023-07-31T00:10:12;15.90;99.90
53498;DHT22;39382;47.168;16.008;2023-07-31T00:12:42;15.80;99.90
53498;DHT22;39382;47.168;16.008;2023-07-31T00:15:08;15.90;99.90
53498;DHT22;39382;47.168;16.008;2023-07-31T00:17:35;15.90;99.90
53498;DHT22;39382;47.168;16.008;2023-07-31T00:20:01;15.90;99.90
53498;DHT22;39382;47.168;16.008;2023-07-31T00:22:26;15.90;99.90
53498;DHT22;39382;47.168;16.008;2023-07-31T00:24:52;16.00;99.90
53498;DHT22;39382;47.168;16.008;2023-07-31T00:27:18;16.00;99.90
53498;DHT22;39382;47.168;16.008;2023-07-31T00:29:43;15.90;99.90
53498;DHT22;39382;47.168;16.008;2023-07-31T00:32:09;15.90;99.90
53498;DHT22;39382;47.168;16.008;2023-07-31T00:34:34;15.90;99.90
53498;DHT22;39382;47.168;16.008;2023-07-31T00:37:00;15.90;99.90
53498;DHT22;39382;47.168;16.008;2023-07-31T00:39:26;15.80;99.90
53498;DHT22;39382;47.168;16.008;2023-07-31T00:41:51;15.90;99.90
53498;DHT22;39382;47.168;16.008;2023-07-31T00:44:17;15.90;99.90
53498;DHT22;39382;47.168;16.008;2023-07-31T00:46:42;15.80;99.90
53498;DHT22;39382;47.168;16.008;2023-07-31T00:49:08;15.90;99.90
53498;DHT22;39382;47.168;16.008;2023-07-31T00:51:34;15.80;99.90
53498;DHT22;39382;47.168;16.008;2023-07-31T00:54:00;15.80;99.90
53498;DHT22;39382;47.168;16.008;2023-07-31T00:56:27;15.90;99.90
53498;DHT22;39382;47.168;16.008;2023-07-31T00:58:54;15.90;99.90
53498;DHT22;39382;47.168;16.008;2023-07-31T01:01:20;15.80;99.90
53498;DHT22;39382;47.168;16.008;2023-07-31T01:03:46;15.90;99.90
53498;DHT22;39382;47.168;16.008;2023-07-31T01:06:23;15.90;99.90
53498;DHT22;39382;47.168;16.008;2023-07-31T01:09:06;15.90;99.90
53498;DHT22;39382;47.168;16.008;2023-07-31T01:11:39;15.80;99.90
53498;DHT22;39382;47.168;16.008;2023-07-31T01:14:08;15.80;99.90
53498;DHT22;39382;47.168;16.008;2023-07-31T01:16:33;15.80;99.90
53498;DHT22;39382;47.168;16.008;2023-07-31T01:18:59;15.80;99.90
53498;DHT22;39382;47.168;16.008;2023-07-31T01:27:17;15.70;99.90
53498;DHT22;39382;47.168;16.008;2023-07-31T01:32:19;15.60;99.90
53498;DHT22;39382;47.168;16.008;2023-07-31T01:34:46;15.60;99.90
53498;DHT22;39382;47.168;16.008;2023-07-31T01:37:12;15.60;99.90
53498;DHT22;39382;47.168;16.008;2023-07-31T01:39:38;15.50;99.90
53498;DHT22;39382;47.168;16.008;2023-07-31T01:42:04;15.50;99.90
53498;DHT22;39382;47.168;16.008;2023-07-31T01:44:30;15.50;99.90
53498;DHT22;39382;47.168;16.008;2023-07-31T01:46:56;15.50;99.90
53498;DHT22;39382;47.168;16.008;2023-07-31T01:49:21;15.40;99.90
53498;DHT22;39382;47.168;16.008;2023-07-31T01:51:47;15.30;99.90
53498;DHT22;39382;47.168;16.008;2023-07-31T01:54:12;15.40;99.90
53498;DHT22;39382;47.168;16.008;2023-07-31T01:56:38;15.30;99.90
53498;DHT22;39382;47.168;16.008;2023-07-31T01:59:04;15.40;99.90
53498;DHT22;39382;47.168;16.008;2023-07-31T02:01:29;15.40;99.90
53498;DHT22;39382;47.168;16.008;2023-07-31T02:03:55;15.40;99.90
53498;DHT22;39382;47.168;16.008;2023-07-31T02:06:20;15.40;99.90
53498;DHT22;39382;47.168;16.008;2023-07-31T02:08:46;15.40;99.90
53498;DHT22;39382;47.168;16.008;2023-07-31T02:11:11;15.30;99.90
53498;DHT22;39382;47.168;16.008;2023-07-31T02:13:37;15.40;99.90
53498;DHT22;39382;47.168;16.008;2023-07-31T02:16:03;15.30;99.90
53498;DHT22;39382;47.168;16.008;2023-07-31T02:18:29;15.30;99.90
53498;DHT22;39382;47.168;16.008;2023-07-31T02:20:54;15.30;99.90
53498;DHT22;39382;47.168;16.008;2023-07-31T02:23:20;15.30;99.90
53498;DHT22;39382;47.168;16.008;2023-07-31T02:25:46;15.30;99.90
53498;DHT22;39382;47.168;16.008;2023-07-31T02:28:12;15.20;99.90
53498;DHT22;39382;47.168;16.008;2023-07-31T02:30:38;15.10;99.90
53498;DHT22;39382;47.168;16.008;2023-07-31T02:33:04;15.10;99.90
53498;DHT22;39382;47.168;16.008;2023-07-31T02:35:30;15.00;99.90
53498;DHT22;39382;47.168;16.008;2023-07-31T02:37:56;15.10;99.90
53498;DHT22;39382;47.168;16.008;2023-07-31T02:40:22;15.00;99.90
53498;DHT22;39382;47.168;16.008;2023-07-31T02:42:47;15.10;99.90
53498;DHT22;39382;47.168;16.008;2023-07-31T02:45:13;15.00;99.90
53498;DHT22;39382;47.168;16.008;2023-07-31T02:47:39;15.10;99.90
53498;DHT22;39382;47.168;16.008;2023-07-31T02:50:05;15.10;99.90
53498;DHT22;39382;47.168;16.008;2023-07-31T02:52:30;15.10;99.90
53498;DHT22;39382;47.168;16.008;2023-07-31T02:54:57;15.10;99.90
53498;DHT22;39382;47.168;16.008;2023-07-31T02:57:22;15.00;99.90
53498;DHT22;39382;47.168;16.008;2023-07-31T02:59:48;15.00;99.90
53498;DHT22;39382;47.168;16.008;2023-07-31T03:02:14;14.90;99.90
53498;DHT22;39382;47.168;16.008;2023-07-31T03:04:39;15.00;99.90
53498;DHT22;39382;47.168;16.008;2023-07-31T03:07:05;15.10;99.90
53498;DHT22;39382;47.168;16.008;2023-07-31T03:09:31;15.00;99.90
53498;DHT22;39382;47.168;16.008;2023-07-31T03:11:56;14.90;99.90
53498;DHT22;39382;47.168;16.008;2023-07-31T03:14:22;14.90;99.90
53498;DHT22;39382;47.168;16.008;2023-07-31T03:16:48;14.80;99.90
53498;DHT22;39382;47.168;16.008;2023-07-31T03:19:14;14.80;99.90
53498;DHT22;39382;47.168;16.008;2023-07-31T03:21:40;14.90;99.90
53498;DHT22;39382;47.168;16.008;2023-07-31T03:24:05;14.80;99.90
53498;DHT22;39382;47.168;16.008;2023-07-31T03:26:32;14.80;99.90
53498;DHT22;39382;47.168;16.008;2023-07-31T03:28:57;14.80;99.90
53498;DHT22;39382;47.168;16.008;2023-07-31T03:31:23;14.80;99.90
53498;DHT22;39382;47.168;16.008;2023-07-31T03:33:48;14.70;99.90
53498;DHT22;39382;47.168;16.008;2023-07-31T03:36:14;14.70;99.90
53498;DHT22;39382;47.168;16.008;2023-07-31T03:38:39;14.70;99.90
53498;DHT22;39382;47.168;16.008;2023-07-31T03:41:05;14.70;99.90
53498;DHT22;39382;47.168;16.008;2023-07-31T03:43:32;14.70;99.90
53498;DHT22;39382;47.168;16.008;2023-07-31T03:46:02;14.70;99.90
53498;DHT22;39382;47.168;16.008;2023-07-31T03:48:28;15.80;99.90
53498;DHT22;39382;47.168;16.008;2023-07-31T03:50:54;16.90;99.90
53498;DHT22;39382;47.168;16.008;2023-07-31T03:53:19;17.10;99.90
53498;DHT22;39382;47.168;16.008;2023-07-31T03:55:45;17.30;99.90
53498;DHT22;39382;47.168;16.008;2023-07-31T03:58:11;17.20;99.90
53498;DHT22;39382;47.168;16.008;2023-07-31T04:00:36;17.70;99.90
53498;DHT22;39382;47.168;16.008;2023-07-31T04:03:02;18.00;99.90
53498;DHT22;39382;47.168;16.008;2023-07-31T04:05:31;18.30;99.90
53498;DHT22;39382;47.168;16.008;2023-07-31T04:07:56;18.50;99.90
53498;DHT22;39382;47.168;16.008;2023-07-31T04:10:22;19.00;99.90
53498;DHT22;39382;47.168;16.008;2023-07-31T04:12:48;19.50;99.90
53498;DHT22;39382;47.168;16.008;2023-07-31T04:15:14;19.50;99.90
53498;DHT22;39382;47.168;16.008;2023-07-31T04:17:39;18.70;99.90
53498;DHT22;39382;47.168;16.008;2023-07-31T04:20:05;18.70;99.90
53498;DHT22;39382;47.168;16.008;2023-07-31T04:22:31;18.70;99.90
53498;DHT22;39382;47.168;16.008;2023-07-31T04:24:57;18.60;99.90
53498;DHT22;39382;47.168;16.008;2023-07-31T04:27:22;18.50;99.90
53498;DHT22;39382;47.168;16.008;2023-07-31T04:29:48;18.40;99.90
53498;DHT22;39382;47.168;16.008;2023-07-31T04:32:14;18.00;99.90
53498;DHT22;39382;47.168;16.008;2023-07-31T04:34:42;18.00;99.90
53498;DHT22;39382;47.168;16.008;2023-07-31T04:37:07;18.40;99.90
53498;DHT22;39382;47.168;16.008;2023-07-31T04:39:33;18.60;99.90
53498;DHT22;39382;47.168;16.008;2023-07-31T04:41:59;19.10;99.90
53498;DHT22;39382;47.168;16.008;2023-07-31T04:44:24;19.10;99.90
53498;DHT22;39382;47.168;16.008;2023-07-31T04:46:50;18.80;99.90
53498;DHT22;39382;47.168;16.008;2023-07-31T04:49:15;18.50;99.90
53498;DHT22;39382;47.168;16.008;2023-07-31T04:51:41;17.90;99.90
53498;DHT22;39382;47.168;16.008;2023-07-31T04:54:06;17.40;99.90
53498;DHT22;39382;47.168;16.008;2023-07-31T04:56:32;17.10;99.90
53498;DHT22;39382;47.168;16.008;2023-07-31T04:58:58;16.80;99.90
53498;DHT22;39382;47.168;16.008;2023-07-31T05:01:23;16.50;99.90
53498;DHT22;39382;47.168;16.008;2023-07-31T05:03:49;16.40;99.90
53498;DHT22;39382;47.168;16.008;2023-07-31T05:06:14;16.50;99.90
53498;DHT22;39382;47.168;16.008;2023-07-31T05:08:40;16.40;99.90
53498;DHT22;39382;47.168;16.008;2023-07-31T05:11:06;16.40;99.90
53498;DHT22;39382;47.168;16.008;2023-07-31T05:13:32;16.40;99.90
53498;DHT22;39382;47.168;16.008;2023-07-31T05:15:57;16.50;99.90
53498;DHT22;39382;47.168;16.008;2023-07-31T05:18:23;16.60;99.90
53498;DHT22;39382;47.168;16.008;2023-07-31T05:20:48;16.70;99.90
53498;DHT22;39382;47.168;16.008;2023-07-31T05:23:14;16.90;99.90
53498;DHT22;39382;47.168;16.008;2023-07-31T05:25:39;17.00;99.90
53498;DHT22;39382;47.168;16.008;2023-07-31T05:28:05;17.10;99.90
53498;DHT22;39382;47.168;16.008;2023-07-31T05:30:31;17.30;99.90
53498;DHT22;39382;47.168;16.008;2023-07-31T05:32:57;17.40;99.90
53498;DHT22;39382;47.168;16.008;2023-07-31T05:35:22;17.40;99.90
53498;DHT22;39382;47.168;16.008;2023-07-31T05:37:48;17.50;99.90
53498;DHT22;39382;47.168;16.008;2023-07-31T05:40:14;17.70;99.90
53498;DHT22;39382;47.168;16.008;2023-07-31T05:42:40;17.80;99.90
53498;DHT22;39382;47.168;16.008;2023-07-31T05:45:08;17.90;99.90
53498;DHT22;39382;47.168;16.008;2023-07-31T05:47:34;18.50;99.90
53498;DHT22;39382;47.168;16.008;2023-07-31T05:50:00;19.20;99.90
53498;DHT22;39382;47.168;16.008;2023-07-31T05:52:26;19.90;99.90
53498;DHT22;39382;47.168;16.008;2023-07-31T05:54:51;20.20;99.90
53498;DHT22;39382;47.168;16.008;2023-07-31T05:57:17;20.60;99.90
53498;DHT22;39382;47.168;16.008;2023-07-31T05:59:43;20.70;99.90
53498;DHT22;39382;47.168;16.008;2023-07-31T06:02:08;20.80;99.90
53498;DHT22;39382;47.168;16.008;2023-07-31T06:04:34;20.70;99.90
53498;DHT22;39382;47.168;16.008;2023-07-31T06:07:00;21.00;99.90
53498;DHT22;39382;47.168;16.008;2023-07-31T06:09:26;21.40;99.90
53498;DHT22;39382;47.168;16.008;2023-07-31T06:11:51;21.40;99.90
53498;DHT22;39382;47.168;16.008;2023-07-31T06:14:17;21.40;99.90
53498;DHT22;39382;47.168;16.008;2023-07-31T06:16:44;21.40;99.90
53498;DHT22;39382;47.168;16.008;2023-07-31T06:19:10;21.50;99.90
53498;DHT22;39382;47.168;16.008;2023-07-31T06:21:36;21.50;99.90
53498;DHT22;39382;47.168;16.008;2023-07-31T06:24:08;21.70;98.80
53498;DHT22;39382;47.168;16.008;2023-07-31T06:26:33;21.80;98.30
53498;DHT22;39382;47.168;16.008;2023-07-31T06:28:59;22.00;98.00
53498;DHT22;39382;47.168;16.008;2023-07-31T06:31:25;22.10;97.10
53498;DHT22;39382;47.168;16.008;2023-07-31T06:33:51;22.20;97.00
53498;DHT22;39382;47.168;16.008;2023-07-31T06:36:17;22.30;97.10
53498;DHT22;39382;47.168;16.008;2023-07-31T06:38:43;22.40;96.80
53498;DHT22;39382;47.168;16.008;2023-07-31T06:41:08;22.40;97.00
53498;DHT22;39382;47.168;16.008;2023-07-31T06:43:35;22.40;97.40
53498;DHT22;39382;47.168;16.008;2023-07-31T06:46:05;22.50;97.80
53498;DHT22;39382;47.168;16.008;2023-07-31T06:48:32;22.60;97.50
53498;DHT22;39382;47.168;16.008;2023-07-31T06:50:58;22.70;97.40
53498;DHT22;39382;47.168;16.008;2023-07-31T06:53:23;22.70;97.70
53498;DHT22;39382;47.168;16.008;2023-07-31T06:55:49;22.60;97.90
53498;DHT22;39382;47.168;16.008;2023-07-31T06:58:17;22.60;98.70
53498;DHT22;39382;47.168;16.008;2023-07-31T07:00:42;22.60;97.00
53498;DHT22;39382;47.168;16.008;2023-07-31T07:03:08;22.50;97.50
53498;DHT22;39382;47.168;16.008;2023-07-31T07:05:33;22.70;96.90
53498;DHT22;39382;47.168;16.008;2023-07-31T07:08:00;22.70;95.10
53498;DHT22;39382;47.168;16.008;2023-07-31T07:10:25;22.60;92.90
53498;DHT22;39382;47.168;16.008;2023-07-31T07:12:51;22.80;93.60
53498;DHT22;39382;47.168;16.008;2023-07-31T07:15:17;22.80;93.30
53498;DHT22;39382;47.168;16.008;2023-07-31T07:17:42;23.00;95.00
53498;DHT22;39382;47.168;16.008;2023-07-31T07:20:08;23.20;93.50
53498;DHT22;39382;47.168;16.008;2023-07-31T07:22:34;23.40;90.80
53498;DHT22;39382;47.168;16.008;2023-07-31T07:24:59;23.50;90.50
53498;DHT22;39382;47.168;16.008;2023-07-31T07:27:25;23.50;88.30
53498;DHT22;39382;47.168;16.008;2023-07-31T07:29:51;23.70;87.10
53498;DHT22;39382;47.168;16.008;2023-07-31T07:32:20;23.80;88.70
53498;DHT22;39382;47.168;16.008;2023-07-31T07:34:47;23.70;88.20
53498;DHT22;39382;47.168;16.008;2023-07-31T07:37:13;23.80;86.10
53498;DHT22;39382;47.168;16.008;2023-07-31T07:39:39;24.00;86.60
53498;DHT22;39382;47.168;16.008;2023-07-31T07:42:04;24.00;84.60
53498;DHT22;39382;47.168;16.008;2023-07-31T07:44:30;23.80;86.00
53498;DHT22;39382;47.168;16.008;2023-07-31T07:46:56;24.00;84.00
53498;DHT22;39382;47.168;16.008;2023-07-31T07:49:21;24.00;86.60
53498;DHT22;39382;47.168;16.008;2023-07-31T07:51:48;24.00;86.50
53498;DHT22;39382;47.168;16.008;2023-07-31T07:54:14;23.90;86.90
53498;DHT22;39382;47.168;16.008;2023-07-31T07:56:39;23.80;89.00
53498;DHT22;39382;47.168;16.008;2023-07-31T07:59:05;23.90;89.30
53498;DHT22;39382;47.168;16.008;2023-07-31T08:01:31;23.80;82.30
53498;DHT22;39382;47.168;16.008;2023-07-31T08:03:57;23.80;85.50
53498;DHT22;39382;47.168;16.008;2023-07-31T08:06:23;23.60;89.60
53498;DHT22;39382;47.168;16.008;2023-07-31T08:08:49;23.80;91.40
53498;DHT22;39382;47.168;16.008;2023-07-31T08:11:15;23.80;90.50
53498;DHT22;39382;47.168;16.008;2023-07-31T08:13:40;23.80;90.90
53498;DHT22;39382;47.168;16.008;2023-07-31T08:16:06;23.90;91.30
53498;DHT22;39382;47.168;16.008;2023-07-31T08:18:32;24.00;90.90
53498;DHT22;39382;47.168;16.008;2023-07-31T08:20:58;24.20;91.00
53498;DHT22;39382;47.168;16.008;2023-07-31T08:23:24;24.20;90.10
53498;DHT22;39382;47.168;16.008;2023-07-31T08:25:49;24.10;85.30
53498;DHT22;39382;47.168;16.008;2023-07-31T08:28:16;24.30;90.00
53498;DHT22;39382;47.168;16.008;2023-07-31T08:30:42;24.50;89.10
53498;DHT22;39382;47.168;16.008;2023-07-31T08:33:07;24.50;89.00
53498;DHT22;39382;47.168;16.008;2023-07-31T08:35:33;24.60;89.70
53498;DHT22;39382;47.168;16.008;2023-07-31T08:37:59;24.80;89.60
53498;DHT22;39382;47.168;16.008;2023-07-31T08:40:25;24.90;87.30
53498;DHT22;39382;47.168;16.008;2023-07-31T08:42:55;25.00;82.30
53498;DHT22;39382;47.168;16.008;2023-07-31T08:45:28;24.90;77.40
53498;DHT22;39382;47.168;16.008;2023-07-31T08:47:55;24.80;84.00
53498;DHT22;39382;47.168;16.008;2023-07-31T08:50:22;24.80;80.60
53498;DHT22;39382;47.168;16.008;2023-07-31T08:52:49;24.90;81.00
53498;DHT22;39382;47.168;16.008;2023-07-31T08:55:15;24.80;83.50
53498;DHT22;39382;47.168;16.008;2023-07-31T08:57:42;24.90;80.50
53498;DHT22;39382;47.168;16.008;2023-07-31T09:00:09;25.00;79.10
53498;DHT22;39382;47.168;16.008;2023-07-31T09:02:45;25.00;82.10
53498;DHT22;39382;47.168;16.008;2023-07-31T09:05:11;25.10;80.70
53498;DHT22;39382;47.168;16.008;2023-07-31T09:07:37;25.30;80.90
53498;DHT22;39382;47.168;16.008;2023-07-31T09:10:04;25.30;78.10
53498;DHT22;39382;47.168;16.008;2023-07-31T09:12:30;25.30;80.10
53498;DHT22;39382;47.168;16.008;2023-07-31T09:14:57;25.30;82.40
53498;DHT22;39382;47.168;16.008;2023-07-31T09:17:30;25.40;82.50
53498;DHT22;39382;47.168;16.008;2023-07-31T09:19:56;25.30;79.70
53498;DHT22;39382;47.168;16.008;2023-07-31T09:22:35;25.40;76.60
53498;DHT22;39382;47.168;16.008;2023-07-31T09:25:23;25.50;79.00
53498;DHT22;39382;47.168;16.008;2023-07-31T09:27:59;25.50;78.60
53498;DHT22;39382;47.168;16.008;2023-07-31T09:30:26;25.50;80.10
53498;DHT22;39382;47.168;16.008;2023-07-31T09:33:01;25.50;78.80
53498;DHT22;39382;47.168;16.008;2023-07-31T09:35:31;25.80;78.50
53498;DHT22;39382;47.168;16.008;2023-07-31T09:38:09;25.70;79.10
53498;DHT22;39382;47.168;16.008;2023-07-31T09:40:37;25.80;79.50
53498;DHT22;39382;47.168;16.008;2023-07-31T09:43:11;25.90;76.90
53498;DHT22;39382;47.168;16.008;2023-07-31T09:45:38;25.90;77.50
53498;DHT22;39382;47.168;16.008;2023-07-31T09:48:09;25.80;75.10
53498;DHT22;39382;47.168;16.008;2023-07-31T09:50:37;25.70;77.30
53498;DHT22;39382;47.168;16.008;2023-07-31T09:53:04;25.70;78.50
53498;DHT22;39382;47.168;16.008;2023-07-31T09:55:29;26.00;81.80
53498;DHT22;39382;47.168;16.008;2023-07-31T09:57:57;26.00;76.10
53498;DHT22;39382;47.168;16.008;2023-07-31T10:00:23;26.00;74.10
53498;DHT22;39382;47.168;16.008;2023-07-31T10:02:51;26.10;74.60
53498;DHT22;39382;47.168;16.008;2023-07-31T10:05:16;26.20;72.60
53498;DHT22;39382;47.168;16.008;2023-07-31T10:07:55;26.20;71.30
53498;DHT22;39382;47.168;16.008;2023-07-31T10:10:22;26.20;71.80
53498;DHT22;39382;47.168;16.008;2023-07-31T10:12:52;26.40;72.70
53498;DHT22;39382;47.168;16.008;2023-07-31T10:15:19;26.50;73.70
53498;DHT22;39382;47.168;16.008;2023-07-31T10:17:47;26.70;71.90
53498;DHT22;39382;47.168;16.008;2023-07-31T10:20:14;26.60;67.20
53498;DHT22;39382;47.168;16.008;2023-07-31T10:22:42;26.50;68.70
53498;DHT22;39382;47.168;16.008;2023-07-31T10:25:08;26.40;71.30
53498;DHT22;39382;47.168;16.008;2023-07-31T10:27:45;26.50;73.60
53498;DHT22;39382;47.168;16.008;2023-07-31T10:30:15;26.70;71.10
53498;DHT22;39382;47.168;16.008;2023-07-31T10:32:41;26.70;69.40
53498;DHT22;39382;47.168;16.008;2023-07-31T10:35:09;26.70;68.30
53498;DHT22;39382;47.168;16.008;2023-07-31T10:37:42;26.90;72.80
53498;DHT22;39382;47.168;16.008;2023-07-31T10:40:17;27.00;70.20
53498;DHT22;39382;47.168;16.008;2023-07-31T10:42:54;26.80;69.40
53498;DHT22;39382;47.168;16.008;2023-07-31T10:45:39;26.80;69.20
53498;DHT22;39382;47.168;16.008;2023-07-31T10:48:12;26.60;69.30
53498;DHT22;39382;47.168;16.008;2023-07-31T10:53:31;26.50;71.20
53498;DHT22;39382;47.168;16.008;2023-07-31T10:56:00;26.70;70.30
53498;DHT22;39382;47.168;16.008;2023-07-31T10:58:26;26.80;68.60
53498;DHT22;39382;47.168;16.008;2023-07-31T11:00:56;26.90;67.30
53498;DHT22;39382;47.168;16.008;2023-07-31T11:04:09;26.90;69.20
53498;DHT22;39382;47.168;16.008;2023-07-31T11:06:15;27.00;69.60
53498;DHT22;39382;47.168;16.008;2023-07-31T11:08:43;26.80;71.90
53498;DHT22;39382;47.168;16.008;2023-07-31T11:11:11;27.00;71.50
53498;DHT22;39382;47.168;16.008;2023-07-31T11:13:47;27.00;70.20
53498;DHT22;39382;47.168;16.008;2023-07-31T11:16:19;27.00;72.00
53498;DHT22;39382;47.168;16.008;2023-07-31T11:18:46;27.10;69.90
53498;DHT22;39382;47.168;16.008;2023-07-31T11:21:14;27.20;72.70
53498;DHT22;39382;47.168;16.008;2023-07-31T11:23:41;27.40;73.30
53498;DHT22;39382;47.168;16.008;2023-07-31T11:26:10;27.40;71.10
53498;DHT22;39382;47.168;16.008;2023-07-31T11:28:37;27.30;70.30
53498;DHT22;39382;47.168;16.008;2023-07-31T11:31:04;27.30;69.60
53498;DHT22;39382;47.168;16.008;2023-07-31T11:33:29;27.20;69.90
53498;DHT22;39382;47.168;16.008;2023-07-31T11:35:55;27.10;67.90
53498;DHT22;39382;47.168;16.008;2023-07-31T11:38:29;27.20;72.80
53498;DHT22;39382;47.168;16.008;2023-07-31T11:41:03;27.30;69.00
53498;DHT22;39382;47.168;16.008;2023-07-31T11:43:29;27.40;70.90
53498;DHT22;39382;47.168;16.008;2023-07-31T11:45:56;27.50;71.80
53498;DHT22;39382;47.168;16.008;2023-07-31T11:48:23;27.60;68.30
53498;DHT22;39382;47.168;16.008;2023-07-31T11:50:51;27.70;66.10
53498;DHT22;39382;47.168;16.008;2023-07-31T11:53:20;27.20;68.40
53498;DHT22;39382;47.168;16.008;2023-07-31T11:55:46;26.90;67.50
53498;DHT22;39382;47.168;16.008;2023-07-31T11:58:14;27.10;71.90
53498;DHT22;39382;47.168;16.008;2023-07-31T12:00:40;27.20;68.20
53498;DHT22;39382;47.168;16.008;2023-07-31T12:03:06;27.30;64.80
53498;DHT22;39382;47.168;16.008;2023-07-31T12:05:32;27.30;67.30
53498;DHT22;39382;47.168;16.008;2023-07-31T12:07:58;27.40;68.00
53498;DHT22;39382;47.168;16.008;2023-07-31T12:10:25;27.40;69.20
53498;DHT22;39382;47.168;16.008;2023-07-31T12:13:08;27.30;66.10
53498;DHT22;39382;47.168;16.008;2023-07-31T12:15:40;27.40;69.10
53498;DHT22;39382;47.168;16.008;2023-07-31T12:18:14;27.40;69.10
53498;DHT22;39382;47.168;16.008;2023-07-31T12:20:42;27.40;68.10
53498;DHT22;39382;47.168;16.008;2023-07-31T12:23:20;27.40;68.10
53498;DHT22;39382;47.168;16.008;2023-07-31T12:26:08;27.30;68.10
53498;DHT22;39382;47.168;16.008;2023-07-31T12:28:36;27.40;70.30
53498;DHT22;39382;47.168;16.008;2023-07-31T12:31:04;27.50;72.70
53498;DHT22;39382;47.168;16.008;2023-07-31T12:33:37;27.50;68.40
53498;DHT22;39382;47.168;16.008;2023-07-31T12:36:07;27.70;69.00
53498;DHT22;39382;47.168;16.008;2023-07-31T12:38:33;27.80;70.80
53498;DHT22;39382;47.168;16.008;2023-07-31T12:40:59;27.80;70.40
53498;DHT22;39382;47.168;16.008;2023-07-31T12:43:24;27.90;67.40
53498;DHT22;39382;47.168;16.008;2023-07-31T12:45:50;28.00;66.20
53498;DHT22;39382;47.168;16.008;2023-07-31T12:48:16;27.80;67.30
53498;DHT22;39382;47.168;16.008;2023-07-31T12:50:42;27.60;67.60
53498;DHT22;39382;47.168;16.008;2023-07-31T12:53:08;27.80;68.30
53498;DHT22;39382;47.168;16.008;2023-07-31T12:55:34;27.80;69.50
53498;DHT22;39382;47.168;16.008;2023-07-31T12:58:00;27.80;68.00
53498;DHT22;39382;47.168;16.008;2023-07-31T13:00:26;27.50;67.40
53498;DHT22;39382;47.168;16.008;2023-07-31T13:02:52;27.40;69.10
53498;DHT22;39382;47.168;16.008;2023-07-31T13:05:17;27.30;65.60
53498;DHT22;39382;47.168;16.008;2023-07-31T13:07:45;27.30;67.80
53498;DHT22;39382;47.168;16.008;2023-07-31T13:10:10;27.60;66.20
53498;DHT22;39382;47.168;16.008;2023-07-31T13:12:36;27.50;67.50
53498;DHT22;39382;47.168;16.008;2023-07-31T13:15:02;27.40;68.40
53498;DHT22;39382;47.168;16.008;2023-07-31T13:17:28;27.20;70.10
53498;DHT22;39382;47.168;16.008;2023-07-31T13:19:53;27.10;71.20
53498;DHT22;39382;47.168;16.008;2023-07-31T13:22:19;27.10;72.00
53498;DHT22;39382;47.168;16.008;2023-07-31T13:24:44;27.20;73.20
53498;DHT22;39382;47.168;16.008;2023-07-31T13:27:10;27.20;72.50
53498;DHT22;39382;47.168;16.008;2023-07-31T13:29:36;27.40;74.20
53498;DHT22;39382;47.168;16.008;2023-07-31T13:32:01;27.50;72.10
53498;DHT22;39382;47.168;16.008;2023-07-31T13:34:27;27.70;70.60
53498;DHT22;39382;47.168;16.008;2023-07-31T13:36:54;27.80;71.60
53498;DHT22;39382;47.168;16.008;2023-07-31T13:39:20;27.80;70.60
53498;DHT22;39382;47.168;16.008;2023-07-31T13:41:46;27.80;70.10
53498;DHT22;39382;47.168;16.008;2023-07-31T13:44:11;27.70;71.90
53498;DHT22;39382;47.168;16.008;2023-07-31T13:46:37;27.70;72.20
53498;DHT22;39382;47.168;16.008;2023-07-31T13:49:03;27.80;70.60
53498;DHT22;39382;47.168;16.008;2023-07-31T13:51:28;27.80;70.90
53498;DHT22;39382;47.168;16.008;2023-07-31T13:53:54;28.00;72.20
53498;DHT22;39382;47.168;16.008;2023-07-31T13:56:20;27.80;70.60
53498;DHT22;39382;47.168;16.008;2023-07-31T13:58:45;28.10;72.40
53498;DHT22;39382;47.168;16.008;2023-07-31T14:01:11;28.20;72.20
53498;DHT22;39382;47.168;16.008;2023-07-31T14:03:36;28.20;69.70
53498;DHT22;39382;47.168;16.008;2023-07-31T14:06:02;28.10;70.00
53498;DHT22;39382;47.168;16.008;2023-07-31T14:08:28;28.10;71.60
53498;DHT22;39382;47.168;16.008;2023-07-31T14:10:55;28.20;72.10
53498;DHT22;39382;47.168;16.008;2023-07-31T14:13:20;28.20;72.30
53498;DHT22;39382;47.168;16.008;2023-07-31T14:15:46;28.20;72.10
53498;DHT22;39382;47.168;16.008;2023-07-31T14:18:12;28.10;71.60
53498;DHT22;39382;47.168;16.008;2023-07-31T14:20:37;28.00;71.40
53498;DHT22;39382;47.168;16.008;2023-07-31T14:23:03;28.00;70.60
53498;DHT22;39382;47.168;16.008;2023-07-31T14:25:29;27.90;70.30
53498;DHT22;39382;47.168;16.008;2023-07-31T14:27:55;27.90;72.00
53498;DHT22;39382;47.168;16.008;2023-07-31T14:30:20;28.00;70.30
53498;DHT22;39382;47.168;16.008;2023-07-31T14:32:46;27.90;71.00
53498;DHT22;39382;47.168;16.008;2023-07-31T14:35:12;27.60;72.00
53498;DHT22;39382;47.168;16.008;2023-07-31T14:37:42;27.50;72.40
53498;DHT22;39382;47.168;16.008;2023-07-31T14:40:09;27.50;71.50
53498;DHT22;39382;47.168;16.008;2023-07-31T14:42:36;27.60;72.00
53498;DHT22;39382;47.168;16.008;2023-07-31T14:45:05;27.60;73.80
53498;DHT22;39382;47.168;16.008;2023-07-31T14:47:31;27.80;74.40
53498;DHT22;39382;47.168;16.008;2023-07-31T14:49:58;27.90;71.50
53498;DHT22;39382;47.168;16.008;2023-07-31T14:52:23;27.70;71.90
53498;DHT22;39382;47.168;16.008;2023-07-31T14:54:49;27.80;73.00
53498;DHT22;39382;47.168;16.008;2023-07-31T14:57:14;27.80;73.30
53498;DHT22;39382;47.168;16.008;2023-07-31T14:59:40;27.80;72.80
53498;DHT22;39382;47.168;16.008;2023-07-31T15:02:07;27.90;73.00
53498;DHT22;39382;47.168;16.008;2023-07-31T15:04:33;28.00;73.10
53498;DHT22;39382;47.168;16.008;2023-07-31T15:06:59;27.90;73.40
53498;DHT22;39382;47.168;16.008;2023-07-31T15:09:24;27.90;73.30
53498;DHT22;39382;47.168;16.008;2023-07-31T15:11:50;27.50;73.60
53498;DHT22;39382;47.168;16.008;2023-07-31T15:14:16;27.30;75.10
53498;DHT22;39382;47.168;16.008;2023-07-31T15:16:41;27.40;73.90
53498;DHT22;39382;47.168;16.008;2023-07-31T15:19:07;27.40;72.70
53498;DHT22;39382;47.168;16.008;2023-07-31T15:21:33;27.40;73.90
53498;DHT22;39382;47.168;16.008;2023-07-31T15:23:58;27.70;76.40